Ferwert, Netherlands
Current Conditions -  °F | °C
As of 8:25 AM on Saturday 25 Oct 2014 (Local Time) from EHLW Reporting Station
Haze Haze  
Wind Chill: 50°   Ceiling: 5100
Heat Index: 50°   Visibility: 6mi
Dew Point: 50°   Wind: 5mph
Humidity: 100%   Direction: 210°SSW
Pressure: 29.97"   Gusts: NA
Location:  53.34°N, 5.83°E
Report Text: EHLW 250625Z AUTO 21004KT 9000 BR BKN051 10/10 Q1015 BLU
Loading
Personal Weather Stations






























Interactive Weather Map
Tropical Storm Tracking
New forecast layout! Learn more

10-Day Weather Forecast

Advertisements
Track Severe Weather on mobile